Avalon School, Santa Catalina Island Weather observations

Data are for 10 minute period ending at time listed.
 Day   Time   Solar   Ave.   Ave.  Ave.  Vector    Max.   Stn.    Total
  of    of     Rad.   Air    Rel.  Wind   Wind     Wind   Baro.  Precip.
Year   Day            Temp.  Hum.  Speed  Dir.     Gust   Pres.         
2016   (PST)   W/m2    F      %     mph   deg.      mph    mb.     in.  
------------------------------------------------------------------------
 179   10:40  698.0    76   74.0     4      7.0     8.4      0.0   1.41  
 179   10:50  707.0    77   72.9     3     62.0     6.6      0.0   1.55  
 179   11:00  715.0    77   73.0     4      4.4     8.4      0.0   1.69  
 179   11:10  723.0    77   73.4     4     96.8     8.4      0.0   1.93  
 179   11:20  731.0    76   74.1     5     99.9    10.8      0.0   0.83  
 179   11:30  738.0    76   74.1     5    109.7    10.2      0.0   1.07  
 179   11:40  745.0    76   73.9     5    108.7     9.0      0.0   2.00  
 179   11:50  749.0    75   75.9     6    106.8    10.2      0.0   1.99  
 179   12:00  752.0    74   77.1     6    101.6    10.8      0.0   1.98  
 179   12:10  755.0    74   76.7     6    105.9    10.8      0.0   0.26  
 179   12:20  757.0    75   76.2     5    110.3     9.0      0.0   0.62  
 179   12:30  756.0    75   75.6     6    103.5    10.8      0.0   0.84  
 179   12:40  753.0    74   77.3     6    109.0    10.8      0.0   0.45  
 179   12:50  750.0    74   77.4     6    118.4    11.3      0.0   0.64  
 179   13:00  745.0    75   77.1     6    106.7    10.8      0.0   0.78  
 179   13:10  737.0    75   76.8     4     98.7     8.4      0.0   0.10  
 179   13:20  731.0    74   78.4     5     92.9     8.4      0.0   0.39  
 179   13:30  720.0    74   79.0     6     94.6    10.8      0.0   0.73  
 179   13:40  708.0    74   79.5     6    107.1    11.3      0.0   0.32  
 179   13:50  694.0    74   80.1     6    115.1    11.3      0.0   0.40  
 179   14:00  680.0    73   81.0     8    118.0    11.9      0.0   1.12  
 179   14:10  667.0    73   81.4     7    126.0    13.1      0.0   0.73  
 179   14:20  652.0    73   81.9     8    131.0    13.7      0.0   1.58  
 179   14:30  635.0    74   81.2     7    126.2    13.1      0.0   1.45  
 179   14:40  618.0    74   81.7     7    125.6    13.1      0.0   0.10  
 179   14:50  599.0    72   83.9     8    132.5    12.5      0.0   0.50  
 179   15:00  580.0    73   83.2     7    126.5    11.9      0.0   1.41  
 179   15:10  559.0    74   82.5     5    109.7    10.2      0.0   0.10  
 179   15:20  537.0    73   84.2     6    100.2     9.6      0.0   0.84  
 179   15:30  513.0    73   85.0     5    115.3     9.0      0.0   1.08  
 179   15:40  488.0    74   84.1     4    114.5     8.4      0.0   0.59  
 179   15:50  463.0    74   83.4     4    102.6     6.6      0.0   1.22  
 179   16:00  439.0    75   81.7     3     72.1     5.4      0.0   1.23  
 179   16:10  414.0    74   82.5     5     96.1     8.4      0.0   1.95  
 179   16:20  389.0    72   85.3     5    102.3     7.8      0.0   1.27  
 179   16:30  363.0    73   85.4     4     94.0     7.2      0.0   0.64  
 179   16:40  337.0    73   84.9     4    118.0     6.6      0.0   0.85  
 179   16:50  311.0    73   84.7     4    103.9     8.4      0.0   1.04  
 179   17:00  283.0    72   85.8     4     91.8     6.6      0.0   0.95  
 179   17:10  256.0    72   86.6     3    107.1     7.8      0.0   0.88  
 179   17:20  230.0    73   85.6     3    104.3     5.4      0.0   0.42  
 179   17:30  204.0    73   85.1     3     86.4     5.4      0.0   1.22  
 179   17:40  176.0    72   86.6     4    107.7     7.2      0.0   1.25  
 179   17:50  149.0    72   87.1     4    116.1     6.0      0.0   2.00  
 179   18:00   50.0    72   87.4     1    138.7     4.8      0.0   1.41  
 179   18:10   23.0    71   87.7     1    118.2     3.0      0.0   0.37  
 179   18:20   21.0    72   87.7     0     85.0     4.8      0.0   1.36  
 179   18:30   19.0    71   87.8     3    110.1     6.0      0.0   1.85  
 179   18:40   13.0    71   88.9     1    112.3     4.2      0.0   1.09  
 179   18:50    8.0    71   89.2     0      0.0     0.0      0.0   0.90  
 179   19:00    5.0    70   89.6     1    101.2     4.2      0.0   1.26  
 179   19:10    3.0    70   90.0     1    133.5     3.6      0.0   1.31  
 179   19:20    1.0    70   90.4     1    156.0     3.0      0.0   2.00  
 179   19:30    0.0    70   90.9     0     87.6     3.0      0.0   1.47  
 179   19:40    0.0    70   91.1     2     99.2     5.4      0.0   2.00  
 179   19:50    0.0    70   91.3     1    115.3     3.0      0.0   2.00  
 179   20:00    0.0    70   91.3     0    150.9     1.2      0.0   1.98  
 179   20:10    0.0    70   91.5     1    130.1     3.0      0.0   1.28  
 179   20:20    0.0    70   91.5     1    141.8     3.0      0.0   1.07  
 179   20:30    0.0    69   91.7     0    107.4     2.4      0.0   0.91  
 179   20:40    0.0    69   91.8     0     56.8     1.2      0.0   0.89  
 179   20:50    0.0    69   92.0     0     80.3     1.2      0.0   0.22  
 179   21:00    0.0    69   92.1     2    267.4     5.4      0.0   1.02  
 179   21:10    0.0    69   92.0     2     72.7     4.8      0.0   0.56  
 179   21:20    0.0    68   92.3     1     89.2     4.2      0.0   1.10  
 179   21:30    0.0    68   92.7     1    117.8     3.0      0.0   1.78  
 179   21:40    0.0    68   93.2     2     78.2     3.6      0.0   2.00  
 179   21:50    0.0    68   93.5     0    130.6     3.0      0.0   2.00  
 179   22:00    0.0    68   93.6     1    248.3     3.0      0.0   2.00  
 179   22:10    0.0    68   93.7     0    269.9     1.8      0.0   0.72  
 179   22:20    0.0    68   93.7     0    259.8     1.8      0.0   0.61  
 179   22:30    0.0    68   93.7     0    100.0     1.8      0.0   0.12  
 179   22:40    0.0    68   93.7     1    110.8     3.0      0.0   0.94  
 179   22:50    0.0    68   93.6     1     92.3     3.6      0.0   1.98  
 179   23:00    0.0    68   93.7     2     74.9     4.2      0.0   1.85  
 179   23:10    0.0    68   93.8     2     80.2     4.2      0.0   1.79  
 179   23:20    0.0    68   93.9     1     95.6     2.4      0.0   1.98  
 179   23:30    0.0    68   93.8     0    344.4     2.4      0.0   1.77  
 179   23:40    0.0    67   93.8     0    347.7     1.8      0.0   2.00  
 179   23:50    0.0    67   93.9     1     73.7     4.2      0.0   2.00  
 180    0:00    0.0    67   93.8     2     81.6     3.6      0.0   1.64  
 180    0:10    0.0    67   93.7     0    133.7     3.0      0.0   1.82  
 180    0:20    0.0    67   93.7     1    123.4     2.4      0.0   1.95  
 180    0:30    0.0    67   93.7     1     18.5     3.0      0.0   1.99  
 180    0:40    0.0    67   93.6     0    330.5     1.8      0.0   2.00  
 180    0:50    0.0    67   93.4     0     79.5     2.4      0.0   1.84  
 180    1:00    0.0    67   93.2     2     99.3     4.8      0.0   2.00  
 180    1:10    0.0    67   93.1     2    105.8     4.2      0.0   1.68  
 180    1:20    0.0    67   93.3     0     94.8     2.4      0.0   1.07  
 180    1:30    0.0    67   93.3     0     69.1     3.0      0.0   1.61  
 180    1:40    0.0    67   93.3     0      0.0     0.0      0.0   1.94  
 180    1:50    0.0    67   93.3     1    124.6     2.4      0.0   1.74  
 180    2:00    0.0    67   93.2     1     93.5     3.6      0.0   1.82  
 180    2:10    0.0    66   93.2     1    114.6     3.6      0.0   1.94  
 180    2:20    0.0    67   93.3     0    254.3     3.0      0.0   2.02  
 180    2:30    0.0    67   93.2     0    236.6     2.4      0.0   1.88  
 180    2:40    0.0    66   93.1     0    182.1     1.8      0.0   1.89  
 180    2:50    0.0    66   93.0     0      0.0     0.0      0.0   1.22  
 180    3:00    0.0    67   92.9     1    116.9     3.0      0.0   0.98  
 180    3:10    0.0    67   92.7     0    175.4     1.8      0.0   0.30  
 180    3:20    0.0    66   92.5     2     89.1     3.6      0.0   1.38  
 180    3:30    0.0    67   92.2     0     89.0     2.4      0.0   1.15  
 180    3:40    0.0    66   91.9     0    181.0     1.8      0.0   0.71  
 180    3:50    0.0    66   91.9     1    120.7     3.6      0.0   0.91  
 180    4:00    0.0    66   91.8     0    141.3     2.4      0.0   0.42  
 180    4:10    0.0    66   91.9     0      0.0     0.0      0.0   1.67  
 180    4:20    0.0    66   92.0     1    256.2     2.4      0.0   1.11  
 180    4:30    0.0    66   92.1     2    256.7     4.2      0.0   0.58  
 180    4:40    0.0    66   92.2     1    260.2     3.0      0.0   0.93  
 180    4:50    1.0    66   92.1     2    257.6     4.2      0.0   0.90  
 180    5:00    2.0    66   92.2     1    257.7     3.0      0.0   0.68  
 180    5:10    4.0    66   92.3     1    253.4     3.6      0.0   1.63  
 180    5:20    8.0    66   92.2     0    248.5     1.8      0.0   1.99  
 180    5:30   16.0    66   92.1     0    220.4     1.8      0.0   2.00  
 180    5:40   25.0    66   92.0     0    258.8     2.4      0.0   1.95  
 180    5:50   48.0    67   91.6     2    184.4     4.8      0.0   2.00  
 180    6:00   62.0    67   91.3     1    154.2     4.2      0.0   0.30  
 180    6:10  143.0    68   90.2     1     64.6     3.0      0.0   0.00  
 180    6:20  167.0    69   87.6     2    110.5     4.2      0.0   1.50  
 180    6:30  192.0    70   85.8     1    102.0     4.8      0.0   1.09  
 180    6:40  218.0    72   83.2     1     99.8     3.0      0.0   0.26  
 180    6:50  245.0    71   82.3     3     98.6     4.8      0.0   0.53  
 180    7:00  272.0    72   81.8     3    100.7     6.0      0.0   2.00  
 180    7:10  298.0    71   83.2     4    103.3     7.2      0.0   0.82  
 180    7:20  324.0    71   83.9     4    106.2     8.4      0.0   1.75  
 180    7:30  352.0    71   83.9     3     90.3     5.4      0.0   1.91  
 180    7:40  377.0    72   82.4     4     96.9     6.6      0.0   0.65  
 180    7:50  402.0    72   83.0     4     89.1     7.2      0.0   1.98  
 180    8:00  428.0    72   82.7     3     93.6     6.6      0.0   2.00  
 180    8:10  452.0    72   81.1     4     62.0     6.6      0.0   2.00  
 180    8:20  476.0    73   80.3     3    358.7     7.2      0.0   2.00  
 180    8:30  501.0    74   79.0     3     83.7     4.8      0.0   2.00  
 180    8:40  523.0    75   76.0     3     88.0     6.6      0.0   2.00  
 180    8:50  543.0    77   74.0     2     93.9     6.6      0.0   0.62  
 180    9:00  563.0    76   74.3     4    105.2     7.2      0.0   1.25  
 180    9:10  583.0    76   73.5     4    101.2     6.6      0.0   2.00  
 180    9:20  602.0    78   70.4     4     97.5     6.6      0.0   1.83  
 180    9:30  620.0    78   69.1     4     96.9     7.2      0.0   2.00  
 180    9:40  637.0    80   66.6     5    107.9     7.2      0.0   0.67  
 180    9:50  654.0    80   66.5     6    124.4     9.6      0.0   1.14  
 180   10:00  672.0    78   70.3     7    123.6    10.8      0.0   0.14  
 180   10:10  688.0    77   72.5     7    127.3    12.5      0.0   0.55  
 180   10:20  703.0    75   75.4     8    129.7    11.9      0.0   0.23  
 180   10:30  718.0    74   78.4     7    132.1    10.8      0.0   0.02  

Return to Avalon School graphs page.


Western Regional Climate Center,wrcc@dri.edu